sensor_id;sensor_type;location;lat;lon;timestamp;temperature;humidity
18779;DHT22;9518;51.720;14.384;2024-03-02T00:00:49;8.20;99.90
18779;DHT22;9518;51.720;14.384;2024-03-02T00:03:18;8.20;99.90
18779;DHT22;9518;51.720;14.384;2024-03-02T00:05:49;8.20;99.90
18779;DHT22;9518;51.720;14.384;2024-03-02T00:08:22;8.20;99.90
18779;DHT22;9518;51.720;14.384;2024-03-02T00:10:51;8.20;99.90
18779;DHT22;9518;51.720;14.384;2024-03-02T00:13:21;8.20;99.90
18779;DHT22;9518;51.720;14.384;2024-03-02T00:15:52;8.20;99.90
18779;DHT22;9518;51.720;14.384;2024-03-02T00:18:20;8.10;99.90
18779;DHT22;9518;51.720;14.384;2024-03-02T00:20:49;8.10;99.90
18779;DHT22;9518;51.720;14.384;2024-03-02T00:23:19;8.10;99.90
18779;DHT22;9518;51.720;14.384;2024-03-02T00:25:51;8.10;99.90
18779;DHT22;9518;51.720;14.384;2024-03-02T00:28:23;8.10;99.90
18779;DHT22;9518;51.720;14.384;2024-03-02T00:30:59;8.10;99.90
18779;DHT22;9518;51.720;14.384;2024-03-02T00:33:32;8.10;99.90
18779;DHT22;9518;51.720;14.384;2024-03-02T00:36:00;8.00;99.90
18779;DHT22;9518;51.720;14.384;2024-03-02T00:38:29;8.10;99.90
18779;DHT22;9518;51.720;14.384;2024-03-02T00:40:57;8.10;99.90
18779;DHT22;9518;51.720;14.384;2024-03-02T00:43:47;8.10;99.90
18779;DHT22;9518;51.720;14.384;2024-03-02T00:46:19;8.10;99.90
18779;DHT22;9518;51.720;14.384;2024-03-02T00:48:53;8.00;99.90
18779;DHT22;9518;51.720;14.384;2024-03-02T00:51:21;8.00;99.90
18779;DHT22;9518;51.720;14.384;2024-03-02T00:53:48;7.90;99.90
18779;DHT22;9518;51.720;14.384;2024-03-02T00:56:16;7.80;99.90
18779;DHT22;9518;51.720;14.384;2024-03-02T00:58:45;7.80;99.90
18779;DHT22;9518;51.720;14.384;2024-03-02T01:01:12;7.80;99.90
18779;DHT22;9518;51.720;14.384;2024-03-02T01:03:40;7.80;99.90
18779;DHT22;9518;51.720;14.384;2024-03-02T01:06:08;7.90;99.90
18779;DHT22;9518;51.720;14.384;2024-03-02T01:08:35;7.90;99.90
18779;DHT22;9518;51.720;14.384;2024-03-02T01:11:03;7.90;99.90
18779;DHT22;9518;51.720;14.384;2024-03-02T01:13:30;8.00;99.90
18779;DHT22;9518;51.720;14.384;2024-03-02T01:15:59;8.00;99.90
18779;DHT22;9518;51.720;14.384;2024-03-02T01:18:26;8.00;99.90
18779;DHT22;9518;51.720;14.384;2024-03-02T01:20:54;8.00;99.90
18779;DHT22;9518;51.720;14.384;2024-03-02T01:23:22;8.00;99.90
18779;DHT22;9518;51.720;14.384;2024-03-02T01:25:50;8.00;99.90
18779;DHT22;9518;51.720;14.384;2024-03-02T01:28:17;8.00;99.90
18779;DHT22;9518;51.720;14.384;2024-03-02T01:30:46;8.00;99.90
18779;DHT22;9518;51.720;14.384;2024-03-02T01:33:15;8.10;99.90
18779;DHT22;9518;51.720;14.384;2024-03-02T01:35:42;8.10;99.90
18779;DHT22;9518;51.720;14.384;2024-03-02T01:38:09;8.10;99.90
18779;DHT22;9518;51.720;14.384;2024-03-02T01:40:37;8.20;99.90
18779;DHT22;9518;51.720;14.384;2024-03-02T01:43:04;8.20;99.90
18779;DHT22;9518;51.720;14.384;2024-03-02T01:45:31;8.20;99.90
18779;DHT22;9518;51.720;14.384;2024-03-02T01:47:59;8.30;99.90
18779;DHT22;9518;51.720;14.384;2024-03-02T01:50:28;8.30;99.90
18779;DHT22;9518;51.720;14.384;2024-03-02T01:52:56;8.40;99.90
18779;DHT22;9518;51.720;14.384;2024-03-02T01:55:23;8.40;99.90
18779;DHT22;9518;51.720;14.384;2024-03-02T01:57:51;8.50;99.90
18779;DHT22;9518;51.720;14.384;2024-03-02T02:00:20;8.40;99.90
18779;DHT22;9518;51.720;14.384;2024-03-02T02:02:48;8.40;99.90
18779;DHT22;9518;51.720;14.384;2024-03-02T02:05:15;8.40;99.90
18779;DHT22;9518;51.720;14.384;2024-03-02T02:07:44;8.40;99.90
18779;DHT22;9518;51.720;14.384;2024-03-02T02:10:11;8.50;99.90
18779;DHT22;9518;51.720;14.384;2024-03-02T02:12:38;8.50;99.90
18779;DHT22;9518;51.720;14.384;2024-03-02T02:15:24;8.50;99.90
18779;DHT22;9518;51.720;14.384;2024-03-02T02:17:52;8.50;99.90
18779;DHT22;9518;51.720;14.384;2024-03-02T02:20:19;8.50;99.90
18779;DHT22;9518;51.720;14.384;2024-03-02T02:22:58;8.50;99.90
18779;DHT22;9518;51.720;14.384;2024-03-02T02:25:27;8.50;99.90
18779;DHT22;9518;51.720;14.384;2024-03-02T02:27:55;8.60;99.90
18779;DHT22;9518;51.720;14.384;2024-03-02T02:30:24;8.60;99.90
18779;DHT22;9518;51.720;14.384;2024-03-02T02:32:51;8.60;99.90
18779;DHT22;9518;51.720;14.384;2024-03-02T02:35:17;8.60;99.90
18779;DHT22;9518;51.720;14.384;2024-03-02T02:37:45;8.60;99.90
18779;DHT22;9518;51.720;14.384;2024-03-02T02:40:15;8.70;99.90
18779;DHT22;9518;51.720;14.384;2024-03-02T02:42:44;8.70;99.90
18779;DHT22;9518;51.720;14.384;2024-03-02T02:45:11;8.70;99.90
18779;DHT22;9518;51.720;14.384;2024-03-02T02:47:39;8.70;99.90
18779;DHT22;9518;51.720;14.384;2024-03-02T02:50:08;8.60;99.90
18779;DHT22;9518;51.720;14.384;2024-03-02T02:52:36;8.50;99.90
18779;DHT22;9518;51.720;14.384;2024-03-02T02:55:06;8.50;99.90
18779;DHT22;9518;51.720;14.384;2024-03-02T02:57:36;8.50;99.90
18779;DHT22;9518;51.720;14.384;2024-03-02T03:00:06;8.50;99.90
18779;DHT22;9518;51.720;14.384;2024-03-02T03:02:36;8.50;99.90
18779;DHT22;9518;51.720;14.384;2024-03-02T03:05:04;8.50;99.90
18779;DHT22;9518;51.720;14.384;2024-03-02T03:07:32;8.50;99.90
18779;DHT22;9518;51.720;14.384;2024-03-02T03:10:00;8.50;99.90
18779;DHT22;9518;51.720;14.384;2024-03-02T03:12:27;8.50;99.90
18779;DHT22;9518;51.720;14.384;2024-03-02T03:14:56;8.50;99.90
18779;DHT22;9518;51.720;14.384;2024-03-02T03:17:23;8.50;99.90
18779;DHT22;9518;51.720;14.384;2024-03-02T03:19:50;8.50;99.90
18779;DHT22;9518;51.720;14.384;2024-03-02T03:22:17;8.50;99.90
18779;DHT22;9518;51.720;14.384;2024-03-02T03:24:44;8.50;99.90
18779;DHT22;9518;51.720;14.384;2024-03-02T03:27:11;8.50;99.90
18779;DHT22;9518;51.720;14.384;2024-03-02T03:29:38;8.50;99.90
18779;DHT22;9518;51.720;14.384;2024-03-02T03:32:08;8.50;99.90
18779;DHT22;9518;51.720;14.384;2024-03-02T03:34:36;8.50;99.90
18779;DHT22;9518;51.720;14.384;2024-03-02T03:37:03;8.60;99.90
18779;DHT22;9518;51.720;14.384;2024-03-02T03:39:30;8.60;99.90
18779;DHT22;9518;51.720;14.384;2024-03-02T03:41:57;8.60;99.90
18779;DHT22;9518;51.720;14.384;2024-03-02T03:44:25;8.60;99.90
18779;DHT22;9518;51.720;14.384;2024-03-02T03:46:52;8.50;99.90
18779;DHT22;9518;51.720;14.384;2024-03-02T03:49:20;8.60;99.90
18779;DHT22;9518;51.720;14.384;2024-03-02T03:51:47;8.60;99.90
18779;DHT22;9518;51.720;14.384;2024-03-02T03:54:15;8.60;99.90
18779;DHT22;9518;51.720;14.384;2024-03-02T03:56:42;8.60;99.90
18779;DHT22;9518;51.720;14.384;2024-03-02T03:59:09;8.60;99.90
18779;DHT22;9518;51.720;14.384;2024-03-02T04:01:36;8.60;99.90
18779;DHT22;9518;51.720;14.384;2024-03-02T04:04:03;8.60;99.90
18779;DHT22;9518;51.720;14.384;2024-03-02T04:06:32;8.60;99.90
18779;DHT22;9518;51.720;14.384;2024-03-02T04:08:59;8.60;99.90
18779;DHT22;9518;51.720;14.384;2024-03-02T04:11:26;8.60;99.90
18779;DHT22;9518;51.720;14.384;2024-03-02T04:13:53;8.70;99.90
18779;DHT22;9518;51.720;14.384;2024-03-02T04:16:20;8.70;99.90
18779;DHT22;9518;51.720;14.384;2024-03-02T04:18:47;8.70;99.90
18779;DHT22;9518;51.720;14.384;2024-03-02T04:21:14;8.70;99.90
18779;DHT22;9518;51.720;14.384;2024-03-02T04:23:43;8.70;99.90
18779;DHT22;9518;51.720;14.384;2024-03-02T04:26:11;8.70;99.90
18779;DHT22;9518;51.720;14.384;2024-03-02T04:28:38;8.70;99.90
18779;DHT22;9518;51.720;14.384;2024-03-02T04:31:06;8.70;99.90
18779;DHT22;9518;51.720;14.384;2024-03-02T04:33:33;8.70;99.90
18779;DHT22;9518;51.720;14.384;2024-03-02T04:36:00;8.70;99.90
18779;DHT22;9518;51.720;14.384;2024-03-02T04:38:28;8.70;99.90
18779;DHT22;9518;51.720;14.384;2024-03-02T04:40:57;8.70;99.90
18779;DHT22;9518;51.720;14.384;2024-03-02T04:43:24;8.70;99.90
18779;DHT22;9518;51.720;14.384;2024-03-02T04:45:51;8.70;99.90
18779;DHT22;9518;51.720;14.384;2024-03-02T04:48:18;8.60;99.90
18779;DHT22;9518;51.720;14.384;2024-03-02T04:50:47;8.60;99.90
18779;DHT22;9518;51.720;14.384;2024-03-02T04:53:14;8.60;99.90
18779;DHT22;9518;51.720;14.384;2024-03-02T04:55:41;8.60;99.90
18779;DHT22;9518;51.720;14.384;2024-03-02T04:58:27;8.60;99.90
18779;DHT22;9518;51.720;14.384;2024-03-02T05:00:54;8.60;99.90
18779;DHT22;9518;51.720;14.384;2024-03-02T05:03:22;8.60;99.90
18779;DHT22;9518;51.720;14.384;2024-03-02T05:05:49;8.60;99.90
18779;DHT22;9518;51.720;14.384;2024-03-02T05:08:16;8.60;99.90
18779;DHT22;9518;51.720;14.384;2024-03-02T05:10:43;8.60;99.90
18779;DHT22;9518;51.720;14.384;2024-03-02T05:13:12;8.60;99.90
18779;DHT22;9518;51.720;14.384;2024-03-02T05:15:41;8.70;99.90
18779;DHT22;9518;51.720;14.384;2024-03-02T05:18:07;8.70;99.90
18779;DHT22;9518;51.720;14.384;2024-03-02T05:20:34;8.70;99.90
18779;DHT22;9518;51.720;14.384;2024-03-02T05:23:01;8.80;99.90
18779;DHT22;9518;51.720;14.384;2024-03-02T05:25:28;8.80;99.90
18779;DHT22;9518;51.720;14.384;2024-03-02T05:27:55;8.90;99.90
18779;DHT22;9518;51.720;14.384;2024-03-02T05:30:22;8.80;99.90
18779;DHT22;9518;51.720;14.384;2024-03-02T05:32:53;8.80;99.90
18779;DHT22;9518;51.720;14.384;2024-03-02T05:35:20;8.80;99.90
18779;DHT22;9518;51.720;14.384;2024-03-02T05:37:47;8.80;99.90
18779;DHT22;9518;51.720;14.384;2024-03-02T05:40:14;8.80;99.90
18779;DHT22;9518;51.720;14.384;2024-03-02T05:42:41;8.80;99.90
18779;DHT22;9518;51.720;14.384;2024-03-02T05:45:08;8.80;99.90
18779;DHT22;9518;51.720;14.384;2024-03-02T05:47:36;8.80;99.90
18779;DHT22;9518;51.720;14.384;2024-03-02T05:50:07;8.80;99.90
18779;DHT22;9518;51.720;14.384;2024-03-02T05:52:34;8.90;99.90
18779;DHT22;9518;51.720;14.384;2024-03-02T05:55:01;9.00;99.90
18779;DHT22;9518;51.720;14.384;2024-03-02T05:57:28;8.90;99.90
18779;DHT22;9518;51.720;14.384;2024-03-02T06:00:15;8.90;99.90
18779;DHT22;9518;51.720;14.384;2024-03-02T06:02:43;8.90;99.90
18779;DHT22;9518;51.720;14.384;2024-03-02T06:05:12;8.90;99.90
18779;DHT22;9518;51.720;14.384;2024-03-02T06:07:39;8.90;99.90
18779;DHT22;9518;51.720;14.384;2024-03-02T06:10:07;8.90;99.90
18779;DHT22;9518;51.720;14.384;2024-03-02T06:12:34;8.90;99.90
18779;DHT22;9518;51.720;14.384;2024-03-02T06:15:01;9.00;99.90
18779;DHT22;9518;51.720;14.384;2024-03-02T06:17:30;9.00;99.90
18779;DHT22;9518;51.720;14.384;2024-03-02T06:19:57;9.10;99.90
18779;DHT22;9518;51.720;14.384;2024-03-02T06:22:26;9.10;99.90
18779;DHT22;9518;51.720;14.384;2024-03-02T06:24:53;9.10;99.90
18779;DHT22;9518;51.720;14.384;2024-03-02T06:27:20;9.10;99.90
18779;DHT22;9518;51.720;14.384;2024-03-02T06:29:48;9.10;99.90
18779;DHT22;9518;51.720;14.384;2024-03-02T06:32:17;9.10;99.90
18779;DHT22;9518;51.720;14.384;2024-03-02T06:34:44;9.20;99.90
18779;DHT22;9518;51.720;14.384;2024-03-02T06:37:13;9.20;99.90
18779;DHT22;9518;51.720;14.384;2024-03-02T06:39:43;9.30;99.90
18779;DHT22;9518;51.720;14.384;2024-03-02T06:42:10;9.30;99.90
18779;DHT22;9518;51.720;14.384;2024-03-02T06:44:37;9.30;99.90
18779;DHT22;9518;51.720;14.384;2024-03-02T06:47:04;9.30;99.90
18779;DHT22;9518;51.720;14.384;2024-03-02T06:49:31;9.30;99.90
18779;DHT22;9518;51.720;14.384;2024-03-02T06:51:57;9.40;99.90
18779;DHT22;9518;51.720;14.384;2024-03-02T06:54:24;9.40;99.90
18779;DHT22;9518;51.720;14.384;2024-03-02T06:56:55;9.30;99.90
18779;DHT22;9518;51.720;14.384;2024-03-02T06:59:23;9.30;99.90
18779;DHT22;9518;51.720;14.384;2024-03-02T07:01:50;9.40;99.90
18779;DHT22;9518;51.720;14.384;2024-03-02T07:04:17;9.40;99.90
18779;DHT22;9518;51.720;14.384;2024-03-02T07:06:44;9.50;99.90
18779;DHT22;9518;51.720;14.384;2024-03-02T07:09:11;9.50;99.90
18779;DHT22;9518;51.720;14.384;2024-03-02T07:11:38;9.50;99.90
18779;DHT22;9518;51.720;14.384;2024-03-02T07:14:07;9.50;99.90
18779;DHT22;9518;51.720;14.384;2024-03-02T07:16:34;9.60;99.90
18779;DHT22;9518;51.720;14.384;2024-03-02T07:19:00;9.70;99.90
18779;DHT22;9518;51.720;14.384;2024-03-02T07:21:28;9.70;99.90
18779;DHT22;9518;51.720;14.384;2024-03-02T07:23:55;9.70;99.90
18779;DHT22;9518;51.720;14.384;2024-03-02T07:26:22;9.80;99.90
18779;DHT22;9518;51.720;14.384;2024-03-02T07:28:49;9.80;99.90
18779;DHT22;9518;51.720;14.384;2024-03-02T07:31:18;9.90;99.90
18779;DHT22;9518;51.720;14.384;2024-03-02T07:33:45;10.00;99.90
18779;DHT22;9518;51.720;14.384;2024-03-02T07:36:14;10.00;99.90
18779;DHT22;9518;51.720;14.384;2024-03-02T07:38:41;10.00;99.90
18779;DHT22;9518;51.720;14.384;2024-03-02T07:41:10;10.00;99.90
18779;DHT22;9518;51.720;14.384;2024-03-02T07:43:37;10.00;99.90
18779;DHT22;9518;51.720;14.384;2024-03-02T07:46:05;10.00;99.90
18779;DHT22;9518;51.720;14.384;2024-03-02T07:48:34;10.10;99.90
18779;DHT22;9518;51.720;14.384;2024-03-02T07:51:01;10.10;99.90
18779;DHT22;9518;51.720;14.384;2024-03-02T07:53:29;10.10;99.90
18779;DHT22;9518;51.720;14.384;2024-03-02T07:55:56;10.10;99.90
18779;DHT22;9518;51.720;14.384;2024-03-02T07:58:28;10.10;99.90
18779;DHT22;9518;51.720;14.384;2024-03-02T08:00:56;10.10;99.90
18779;DHT22;9518;51.720;14.384;2024-03-02T08:03:23;10.10;99.90
18779;DHT22;9518;51.720;14.384;2024-03-02T08:05:52;10.10;99.90
18779;DHT22;9518;51.720;14.384;2024-03-02T08:08:19;10.10;99.90
18779;DHT22;9518;51.720;14.384;2024-03-02T08:10:46;10.10;99.90
18779;DHT22;9518;51.720;14.384;2024-03-02T08:13:14;10.10;99.90
18779;DHT22;9518;51.720;14.384;2024-03-02T08:15:41;10.20;99.90
18779;DHT22;9518;51.720;14.384;2024-03-02T08:18:08;10.30;99.90
18779;DHT22;9518;51.720;14.384;2024-03-02T08:20:35;10.30;99.90
18779;DHT22;9518;51.720;14.384;2024-03-02T08:23:06;10.30;99.90
18779;DHT22;9518;51.720;14.384;2024-03-02T08:25:33;10.30;99.90
18779;DHT22;9518;51.720;14.384;2024-03-02T08:28:00;10.40;99.90
18779;DHT22;9518;51.720;14.384;2024-03-02T08:30:27;10.40;99.90
18779;DHT22;9518;51.720;14.384;2024-03-02T08:32:54;10.40;99.90
18779;DHT22;9518;51.720;14.384;2024-03-02T08:35:21;10.30;99.90
18779;DHT22;9518;51.720;14.384;2024-03-02T08:37:49;10.30;99.90
18779;DHT22;9518;51.720;14.384;2024-03-02T08:40:17;10.30;99.90
18779;DHT22;9518;51.720;14.384;2024-03-02T08:42:45;10.40;99.90
18779;DHT22;9518;51.720;14.384;2024-03-02T08:45:12;10.40;99.90
18779;DHT22;9518;51.720;14.384;2024-03-02T08:47:39;10.30;99.90
18779;DHT22;9518;51.720;14.384;2024-03-02T08:50:07;10.30;99.90
18779;DHT22;9518;51.720;14.384;2024-03-02T08:52:35;10.30;99.90
18779;DHT22;9518;51.720;14.384;2024-03-02T08:55:03;10.30;99.90
18779;DHT22;9518;51.720;14.384;2024-03-02T08:57:31;10.30;99.90
18779;DHT22;9518;51.720;14.384;2024-03-02T08:59:58;10.40;99.90
18779;DHT22;9518;51.720;14.384;2024-03-02T09:02:26;10.50;99.90
18779;DHT22;9518;51.720;14.384;2024-03-02T09:04:53;10.50;99.90
18779;DHT22;9518;51.720;14.384;2024-03-02T09:07:20;10.50;99.90
18779;DHT22;9518;51.720;14.384;2024-03-02T09:09:47;10.50;99.90
18779;DHT22;9518;51.720;14.384;2024-03-02T09:12:14;10.50;99.90
18779;DHT22;9518;51.720;14.384;2024-03-02T09:14:43;10.50;99.90
18779;DHT22;9518;51.720;14.384;2024-03-02T09:17:11;10.50;99.90
18779;DHT22;9518;51.720;14.384;2024-03-02T09:19:38;10.50;99.90
18779;DHT22;9518;51.720;14.384;2024-03-02T09:22:06;10.50;99.90
18779;DHT22;9518;51.720;14.384;2024-03-02T09:24:33;10.60;99.90
18779;DHT22;9518;51.720;14.384;2024-03-02T09:27:00;10.70;99.90
18779;DHT22;9518;51.720;14.384;2024-03-02T09:29:27;10.80;99.90
18779;DHT22;9518;51.720;14.384;2024-03-02T09:31:56;10.90;99.90
18779;DHT22;9518;51.720;14.384;2024-03-02T09:34:26;10.90;99.90
18779;DHT22;9518;51.720;14.384;2024-03-02T09:36:53;11.00;99.90
18779;DHT22;9518;51.720;14.384;2024-03-02T09:39:20;11.10;99.90
18779;DHT22;9518;51.720;14.384;2024-03-02T09:41:48;11.40;99.90
18779;DHT22;9518;51.720;14.384;2024-03-02T09:44:15;11.80;99.90
18779;DHT22;9518;51.720;14.384;2024-03-02T09:46:42;12.10;99.90
18779;DHT22;9518;51.720;14.384;2024-03-02T09:49:12;12.20;99.90
18779;DHT22;9518;51.720;14.384;2024-03-02T09:51:40;12.40;99.90
18779;DHT22;9518;51.720;14.384;2024-03-02T09:54:11;12.20;99.90
18779;DHT22;9518;51.720;14.384;2024-03-02T09:56:38;12.20;99.90
18779;DHT22;9518;51.720;14.384;2024-03-02T09:59:05;12.20;99.90
18779;DHT22;9518;51.720;14.384;2024-03-02T10:01:33;12.30;99.90
18779;DHT22;9518;51.720;14.384;2024-03-02T10:04:00;12.60;99.90
18779;DHT22;9518;51.720;14.384;2024-03-02T10:06:29;12.90;99.90
18779;DHT22;9518;51.720;14.384;2024-03-02T10:08:56;13.10;99.90
18779;DHT22;9518;51.720;14.384;2024-03-02T10:11:28;13.00;99.90
18779;DHT22;9518;51.720;14.384;2024-03-02T10:14:07;12.70;99.90
18779;DHT22;9518;51.720;14.384;2024-03-02T10:16:35;12.50;99.90
18779;DHT22;9518;51.720;14.384;2024-03-02T10:19:18;12.40;99.90
18779;DHT22;9518;51.720;14.384;2024-03-02T10:21:48;12.40;99.90
18779;DHT22;9518;51.720;14.384;2024-03-02T10:24:15;12.20;99.90
18779;DHT22;9518;51.720;14.384;2024-03-02T10:26:43;12.20;99.90
18779;DHT22;9518;51.720;14.384;2024-03-02T10:29:10;12.30;99.90
18779;DHT22;9518;51.720;14.384;2024-03-02T10:31:39;12.30;99.90
18779;DHT22;9518;51.720;14.384;2024-03-02T10:34:07;12.30;99.90
18779;DHT22;9518;51.720;14.384;2024-03-02T10:36:34;12.40;99.90
18779;DHT22;9518;51.720;14.384;2024-03-02T10:39:04;12.40;99.90
18779;DHT22;9518;51.720;14.384;2024-03-02T10:41:33;12.50;99.90
18779;DHT22;9518;51.720;14.384;2024-03-02T10:44:02;12.70;99.90
18779;DHT22;9518;51.720;14.384;2024-03-02T10:46:31;13.30;99.90
18779;DHT22;9518;51.720;14.384;2024-03-02T10:48:59;13.90;99.90
18779;DHT22;9518;51.720;14.384;2024-03-02T10:51:29;14.40;99.90
18779;DHT22;9518;51.720;14.384;2024-03-02T10:53:58;14.90;99.90
18779;DHT22;9518;51.720;14.384;2024-03-02T10:56:31;15.10;99.90
18779;DHT22;9518;51.720;14.384;2024-03-02T10:59:03;15.20;99.90
18779;DHT22;9518;51.720;14.384;2024-03-02T11:01:34;15.20;99.90
18779;DHT22;9518;51.720;14.384;2024-03-02T11:04:02;14.70;99.90
18779;DHT22;9518;51.720;14.384;2024-03-02T11:06:31;14.30;99.90
18779;DHT22;9518;51.720;14.384;2024-03-02T11:09:05;14.20;99.90
18779;DHT22;9518;51.720;14.384;2024-03-02T11:11:40;14.00;99.90
18779;DHT22;9518;51.720;14.384;2024-03-02T11:14:13;13.90;99.90
18779;DHT22;9518;51.720;14.384;2024-03-02T11:16:40;13.60;99.90
18779;DHT22;9518;51.720;14.384;2024-03-02T11:19:10;13.60;99.90
18779;DHT22;9518;51.720;14.384;2024-03-02T11:21:38;13.60;99.90
18779;DHT22;9518;51.720;14.384;2024-03-02T11:24:33;13.60;99.90
18779;DHT22;9518;51.720;14.384;2024-03-02T11:27:02;13.60;99.90
18779;DHT22;9518;51.720;14.384;2024-03-02T11:29:50;13.30;99.90
18779;DHT22;9518;51.720;14.384;2024-03-02T11:32:20;13.20;99.90
18779;DHT22;9518;51.720;14.384;2024-03-02T11:34:49;13.40;99.90
18779;DHT22;9518;51.720;14.384;2024-03-02T11:37:18;13.30;99.90
18779;DHT22;9518;51.720;14.384;2024-03-02T11:39:46;13.40;99.90
18779;DHT22;9518;51.720;14.384;2024-03-02T11:42:15;13.40;99.90
18779;DHT22;9518;51.720;14.384;2024-03-02T11:44:44;13.40;99.90
18779;DHT22;9518;51.720;14.384;2024-03-02T11:47:14;13.30;99.90
18779;DHT22;9518;51.720;14.384;2024-03-02T11:49:41;13.10;99.90
18779;DHT22;9518;51.720;14.384;2024-03-02T11:52:12;13.10;99.90
18779;DHT22;9518;51.720;14.384;2024-03-02T11:54:41;13.30;99.90
18779;DHT22;9518;51.720;14.384;2024-03-02T11:57:12;13.30;99.90
18779;DHT22;9518;51.720;14.384;2024-03-02T11:59:41;13.30;99.90
18779;DHT22;9518;51.720;14.384;2024-03-02T12:02:15;13.30;99.90
18779;DHT22;9518;51.720;14.384;2024-03-02T12:04:44;13.40;99.90
18779;DHT22;9518;51.720;14.384;2024-03-02T12:07:12;13.50;99.90
18779;DHT22;9518;51.720;14.384;2024-03-02T12:09:40;13.80;99.90
18779;DHT22;9518;51.720;14.384;2024-03-02T12:12:08;13.90;99.90
18779;DHT22;9518;51.720;14.384;2024-03-02T12:14:37;14.20;99.90
18779;DHT22;9518;51.720;14.384;2024-03-02T12:17:06;14.50;99.90
18779;DHT22;9518;51.720;14.384;2024-03-02T12:19:34;14.70;99.90
18779;DHT22;9518;51.720;14.384;2024-03-02T12:22:01;14.80;99.90
18779;DHT22;9518;51.720;14.384;2024-03-02T12:24:29;14.90;99.90
18779;DHT22;9518;51.720;14.384;2024-03-02T12:26:57;15.10;99.90
18779;DHT22;9518;51.720;14.384;2024-03-02T12:29:24;15.30;99.90
18779;DHT22;9518;51.720;14.384;2024-03-02T12:31:54;15.70;99.90
18779;DHT22;9518;51.720;14.384;2024-03-02T12:34:22;15.80;99.50
18779;DHT22;9518;51.720;14.384;2024-03-02T12:36:52;15.50;97.00
18779;DHT22;9518;51.720;14.384;2024-03-02T12:39:19;15.20;97.60
18779;DHT22;9518;51.720;14.384;2024-03-02T12:41:49;15.00;96.50
18779;DHT22;9518;51.720;14.384;2024-03-02T12:44:16;14.90;99.20
18779;DHT22;9518;51.720;14.384;2024-03-02T12:46:44;15.00;97.70
18779;DHT22;9518;51.720;14.384;2024-03-02T12:49:15;15.10;97.20
18779;DHT22;9518;51.720;14.384;2024-03-02T12:51:44;15.20;97.70
18779;DHT22;9518;51.720;14.384;2024-03-02T12:54:12;15.30;98.10
18779;DHT22;9518;51.720;14.384;2024-03-02T12:56:41;15.50;96.80
18779;DHT22;9518;51.720;14.384;2024-03-02T12:59:17;15.50;96.30
18779;DHT22;9518;51.720;14.384;2024-03-02T13:01:50;15.60;94.90
18779;DHT22;9518;51.720;14.384;2024-03-02T13:04:22;15.30;96.50
18779;DHT22;9518;51.720;14.384;2024-03-02T13:06:50;15.20;94.00
18779;DHT22;9518;51.720;14.384;2024-03-02T13:09:19;15.50;95.60
18779;DHT22;9518;51.720;14.384;2024-03-02T13:11:46;15.90;95.10
18779;DHT22;9518;51.720;14.384;2024-03-02T13:14:13;16.40;94.30
18779;DHT22;9518;51.720;14.384;2024-03-02T13:16:42;16.50;92.60
18779;DHT22;9518;51.720;14.384;2024-03-02T13:19:11;16.60;92.30
18779;DHT22;9518;51.720;14.384;2024-03-02T13:21:38;16.20;91.50
18779;DHT22;9518;51.720;14.384;2024-03-02T13:24:07;16.00;91.50
18779;DHT22;9518;51.720;14.384;2024-03-02T13:26:34;15.70;93.50
18779;DHT22;9518;51.720;14.384;2024-03-02T13:29:02;15.60;93.70
18779;DHT22;9518;51.720;14.384;2024-03-02T13:31:29;15.40;92.90
18779;DHT22;9518;51.720;14.384;2024-03-02T13:33:55;15.20;93.60
18779;DHT22;9518;51.720;14.384;2024-03-02T13:36:23;14.90;94.60
18779;DHT22;9518;51.720;14.384;2024-03-02T13:38:50;14.90;95.50
18779;DHT22;9518;51.720;14.384;2024-03-02T13:41:18;14.50;95.00
18779;DHT22;9518;51.720;14.384;2024-03-02T13:43:46;14.60;95.70
18779;DHT22;9518;51.720;14.384;2024-03-02T13:46:14;14.60;95.50
18779;DHT22;9518;51.720;14.384;2024-03-02T13:48:41;14.40;95.10
18779;DHT22;9518;51.720;14.384;2024-03-02T13:51:08;14.30;95.50
18779;DHT22;9518;51.720;14.384;2024-03-02T13:53:35;14.30;96.10
18779;DHT22;9518;51.720;14.384;2024-03-02T13:56:03;14.30;96.70
18779;DHT22;9518;51.720;14.384;2024-03-02T13:58:32;14.20;96.50
18779;DHT22;9518;51.720;14.384;2024-03-02T14:00:59;14.30;97.20
18779;DHT22;9518;51.720;14.384;2024-03-02T14:03:27;14.30;95.20
18779;DHT22;9518;51.720;14.384;2024-03-02T14:05:54;14.40;96.90
18779;DHT22;9518;51.720;14.384;2024-03-02T14:08:21;14.50;95.80
18779;DHT22;9518;51.720;14.384;2024-03-02T14:10:49;14.60;94.00
18779;DHT22;9518;51.720;14.384;2024-03-02T14:13:16;14.60;95.70
18779;DHT22;9518;51.720;14.384;2024-03-02T14:15:45;14.80;97.00
18779;DHT22;9518;51.720;14.384;2024-03-02T14:18:13;15.20;97.30
18779;DHT22;9518;51.720;14.384;2024-03-02T14:20:40;15.60;94.70
18779;DHT22;9518;51.720;14.384;2024-03-02T14:23:07;15.60;92.60
18779;DHT22;9518;51.720;14.384;2024-03-02T14:25:35;15.70;93.40
18779;DHT22;9518;51.720;14.384;2024-03-02T14:28:03;15.20;92.10
18779;DHT22;9518;51.720;14.384;2024-03-02T14:30:30;14.70;94.30
18779;DHT22;9518;51.720;14.384;2024-03-02T14:32:59;14.30;93.70
18779;DHT22;9518;51.720;14.384;2024-03-02T14:35:26;14.20;95.70
18779;DHT22;9518;51.720;14.384;2024-03-02T14:37:54;14.10;96.00
18779;DHT22;9518;51.720;14.384;2024-03-02T14:40:23;13.90;96.00
18779;DHT22;9518;51.720;14.384;2024-03-02T14:42:52;13.80;96.40
18779;DHT22;9518;51.720;14.384;2024-03-02T14:45:19;13.60;96.10
18779;DHT22;9518;51.720;14.384;2024-03-02T14:47:49;13.60;97.80
18779;DHT22;9518;51.720;14.384;2024-03-02T14:50:18;13.70;98.60
18779;DHT22;9518;51.720;14.384;2024-03-02T14:52:45;13.90;98.80
18779;DHT22;9518;51.720;14.384;2024-03-02T14:55:12;14.10;99.00
18779;DHT22;9518;51.720;14.384;2024-03-02T14:57:39;14.20;98.10
18779;DHT22;9518;51.720;14.384;2024-03-02T15:00:07;14.30;97.70
18779;DHT22;9518;51.720;14.384;2024-03-02T15:02:36;14.30;97.10
18779;DHT22;9518;51.720;14.384;2024-03-02T15:05:04;14.30;95.90
18779;DHT22;9518;51.720;14.384;2024-03-02T15:07:34;14.10;96.10
18779;DHT22;9518;51.720;14.384;2024-03-02T15:10:01;14.10;97.00
18779;DHT22;9518;51.720;14.384;2024-03-02T15:12:29;14.00;96.40
18779;DHT22;9518;51.720;14.384;2024-03-02T15:14:57;13.90;97.00
18779;DHT22;9518;51.720;14.384;2024-03-02T15:17:24;13.90;96.60
18779;DHT22;9518;51.720;14.384;2024-03-02T15:19:51;14.00;97.10
18779;DHT22;9518;51.720;14.384;2024-03-02T15:22:18;13.90;96.60
18779;DHT22;9518;51.720;14.384;2024-03-02T15:24:47;13.90;96.50
18779;DHT22;9518;51.720;14.384;2024-03-02T15:27:14;13.80;96.60
18779;DHT22;9518;51.720;14.384;2024-03-02T15:29:41;13.90;97.60
18779;DHT22;9518;51.720;14.384;2024-03-02T15:32:09;14.00;97.30
18779;DHT22;9518;51.720;14.384;2024-03-02T15:34:36;14.10;97.70
18779;DHT22;9518;51.720;14.384;2024-03-02T15:37:03;14.20;96.10
18779;DHT22;9518;51.720;14.384;2024-03-02T15:39:30;14.10;97.00
18779;DHT22;9518;51.720;14.384;2024-03-02T15:41:59;14.00;96.70
18779;DHT22;9518;51.720;14.384;2024-03-02T15:44:27;13.80;96.30